NCAR-RAP Real-Time Weather Data

Output produced by METARs form (12 August 2020  18:48 UTC)
found at http://weather.rap.ucar.edu/surface/
 
KPHL 121843Z 21007KT 1SM +TSRA BR BKN021 BKN042CB OVC060 24/24 A3005 RMK AO2 WSHFT 1748 LTG DSNT ALQDS RAB1756 PRESRR CONS LTGICCG OHD TS OHD STNRY P0056 T02440239 RVRNO
KPHL 121823Z 30007G16KT 260V340 1 1/2SM +TSRA BKN040CB BKN060 OVC120 28/21 A3000 RMK AO2 WSHFT 1748 LTG DSNT ALQDS RAB1756 CONS LTGICCG OHD TS OHD STNRY P0000 T02780211
KPHL 121816Z 01012KT 3SM -TSRA BKN040 BKN047CB BKN060 OVC130 28/22 A2999 RMK AO2 WSHFT 1748 LTG DSNT ALQDS RAB1756 FRQ LTGICCG OHD TS OHD STNRY P0000 T02830217
KPHL 121808Z 36012G21KT 10SM -TSRA BKN040 BKN047CB BKN060 BKN130 29/21 A2999 RMK AO2 WSHFT 1748 LTG DSNT ALQDS RAB1756 FRQ LTGICCG OHD TS OHD STNRY P0000 T02890206
KPHL 121754Z 32016G21KT 10SM TS SCT038 BKN048CB BKN120 32/23 A3000 RMK AO2 LTG DSNT ALQDS TSB13 SLP157 FRQ LTGICCG OHD TS OHD STNRY T03220228 10339 20267 55009
KPHL 121713Z 21009KT 10SM TS SCT034 SCT055CB 33/23 A2999 RMK AO2 LTG DSNT ALQDS TSB13 OCNL LTGCG VC N TS VC N STNRY VCSH T03280233
KPHL 121654Z 18010KT 10SM SCT034 SCT055CB 32/24 A2999 RMK AO2 LTG DSNT NE AND E TSB19E53 SLP154 CB N STNRY VCSH T03220239
KPHL 121619Z 20007KT 10SM TS SCT026 SCT055 SCT150 32/24 A3001 RMK AO2 LTG DSNT NE AND E TSB19 OCNL LTGIC VC N TS VC N MOV NE VCSH T03170239
KPHL 121557Z 20007KT 10SM VCTS SCT026 SCT055 SCT150 32/24 A3001 RMK AO2 LTG DSNT NE CB DSNT NE MOV NE T03170239
KPHL 121554Z 21007KT 10SM SCT026 SCT055 SCT150 31/24 A3001 RMK AO2 LTG DSNT NE SLP162 CB DSNT NE MOV NE T03110239
KPHL 121454Z 00000KT 10SM SCT022 SCT150 SCT250 31/24 A3002 RMK AO2 SLP166 T03060244 53001
KPHL 121354Z 17005KT 10SM FEW016 FEW047 SCT150 SCT250 29/25 A3001 RMK AO2 SLP163 T02890250
KPHL 121254Z 19005KT 10SM FEW015 FEW047 SCT150 28/24 A3002 RMK AO2 SLP164 T02780244
KPHL 121154Z 15003KT 10SM FEW010 SCT047 SCT150 27/25 A3002 RMK AO2 SLP165 T02670250 10267 20256 51014
KPHL 121054Z 00000KT 10SM FEW008 SCT047 SCT150 BKN250 26/24 A3001 RMK AO2 SLP161 T02560244
KPHL 121021Z VRB03KT 10SM FEW008 BKN047 BKN170 BKN250 26/24 A3001 RMK AO2 T02610244
KPHL 120954Z 24004KT 10SM FEW045 BKN170 BKN250 26/24 A2999 RMK AO2 SLP155 T02560239
KPHL 120854Z 20004KT 7SM SCT200 26/24 A2998 RMK AO2 SLP151 T02560244 50000
KPHL 120754Z 19004KT 7SM FEW120 BKN200 26/24 A2998 RMK AO2 SLP151 T02560244
KPHL 120713Z 19005KT 8SM FEW060 SCT120 BKN200 26/24 A2998 RMK AO2 T02560244
KPHL 120654Z 19005KT 10SM FEW280 27/24 A2998 RMK AO2 SLP151 T02670244
KPHL 120554Z 19005KT 10SM FEW280 26/24 A2998 RMK AO2 SLP151 T02610239 10294 20261 51007
KPHL 120454Z 20005KT 10SM FEW280 26/24 A2997 RMK AO2 SLP148 T02610244 403220233
KPHL 120354Z 20005KT 10SM SCT280 26/24 A2997 RMK AO2 SLP147 T02610244
KPHL 120254Z 16004KT 10SM SCT280 26/24 A2996 RMK AO2 SLP144 T02610244 53011
KPHL 120154Z 17005KT 10SM SCT280 27/24 A2995 RMK AO2 SLP140 T02670244
KPHL 120054Z 17005KT 10SM SCT250 28/23 A2993 RMK AO2 SLP136 T02780233
KPHL 112354Z 19008KT 10SM SCT250 29/23 A2993 RMK AO2 SLP133 T02940228 10322 20294 53003
KPHL 112254Z 20009KT 10SM FEW040 SCT250 31/22 A2992 RMK AO2 SLP130 T03060222
KPHL 112154Z 19011KT 10SM FEW040 SCT070 SCT250 31/23 A2992 RMK AO2 SLP131 T03060228
KPHL 112054Z 19012KT 10SM SCT040 SCT070 SCT250 32/22 A2992 RMK AO2 SLP130 T03170217 56009
KPHL 111954Z 20010KT 10SM SCT043 SCT250 32/22 A2992 RMK AO2 SLP132 T03220222
KPHL 111854Z 18008KT 10SM FEW040 SCT055 SCT100 BKN280 32/22 A2994 RMK AO2 SLP137 T03170217
KPHL 111754Z 20009KT 10SM SCT032 SCT045 BKN100 BKN280 32/21 A2995 RMK AO2 SLP140 CB DSNT NE-DSNT E MOV NE T03170211 10317 20244 58018
KPHL 111654Z 23009KT 10SM SCT032 SCT045 BKN100 31/23 A2997 RMK AO2 SLP147 CB DSNT NE MOV NE T03110228
KPHL 111554Z VRB06KT 10SM SCT020 SCT043 29/23 A2999 RMK AO2 SLP155 T02890233
KPHL 111454Z 27006KT 10SM FEW014 SCT023 SCT043 28/24 A3000 RMK AO2 SLP157 T02780239 51006
KPHL 111439Z 27004KT 10SM FEW010 SCT015 BKN043 28/24 A3000 RMK AO2 T02780244
KPHL 111428Z 26006KT 10SM SCT008 BKN015 BKN043 27/24 A3000 RMK AO2 T02720244
KPHL 111354Z 24004KT 6SM BR BKN005 OVC012 26/24 A2999 RMK AO2 SLP156 T02610244
KPHL 111350Z 24004KT 4SM BR OVC005 26/24 A2999 RMK AO2
KPHL 111319Z 22005KT 3SM BR OVC004 26/24 A2999 RMK AO2 T02560244
KPHL 111254Z 18005KT 2 1/2SM BR OVC004 25/24 A2999 RMK AO2 SLP153 T02500239
KPHL 111228Z 18006KT 2 1/2SM BR OVC004 24/24 A2998 RMK AO2 T02440239
KPHL 111216Z 18004KT 3SM BR OVC004 24/24 A2998 RMK AO2 T02440239
KPHL 111201Z 18006KT 6SM BR OVC004 24/23 A2998 RMK AO2 T02440233
KPHL 111154Z 18007KT 6SM BR OVC006 24/23 A2998 RMK AO2 SLP151 T02440233 10256 20233 50007
KPHL 111147Z 19006KT 6SM BR OVC006 24/23 A2998 RMK AO2 T02440233
KPHL 111125Z 17005KT 10SM OVC009 24/23 A2998 RMK AO2 T02440233
KPHL 111054Z 00000KT 10SM OVC012 24/23 A2998 RMK AO2 SLP152 T02440228
KPHL 111033Z 17004KT 10SM BKN012 BKN300 24/23 A2998 RMK AO2 T02390228
KPHL 110954Z 18003KT 10SM SCT300 24/22 A2997 RMK AO2 SLP148 T02390222
KPHL 110854Z 17005KT 10SM FEW280 24/23 A2996 RMK AO2 SLP144 T02390228 58008
KPHL 110754Z 22005KT 10SM SCT280 25/23 A2997 RMK AO2 SLP149 T02500233
KPHL 110654Z 18004KT 10SM CLR 24/23 A2997 RMK AO2 SLP149 T02440233
KPHL 110554Z 19005KT 10SM FEW280 26/24 A2998 RMK AO2 SLP152 T02560239 10289 20256 58006
KPHL 110454Z 19007KT 10SM FEW280 26/24 A2999 RMK AO2 SLP156 T02610239 403330239
KPHL 110354Z 20004KT 10SM FEW280 26/24 A3000 RMK AO2 SLP158 T02610239
KPHL 110254Z 20005KT 10SM FEW280 27/24 A3000 RMK AO2 SLP157 T02670239 53011
KPHL 110154Z 20003KT 10SM FEW280 27/23 A2999 RMK AO2 SLP153 T02720233
KPHL 110054Z 20006KT 10SM CLR 28/23 A2997 RMK AO2 SLP149 T02780228
KPHL 102354Z 19011KT 10SM FEW250 29/22 A2997 RMK AO2 SLP146 T02890222 10333 20289 55005
KPHL 102254Z 19011KT 10SM FEW050 31/23 A2996 RMK AO2 SLP144 T03060228
KPHL 102154Z 21008KT 10SM FEW055 FEW100 33/19 A2997 RMK AO2 SLP147 CB DSNT NE MOV NE T03280189
KPHL 102054Z 22009KT 10SM FEW055 FEW100 33/19 A2998 RMK AO2 SLP151 T03330194 58013
KPHL 101954Z 23008KT 10SM FEW050 FEW100 33/19 A3000 RMK AO2 SLP156 T03280194
KPHL 101854Z 21008KT 10SM FEW050 33/21 A3001 RMK AO2 SLP161 T03280211